sensor_id;sensor_type;location;lat;lon;timestamp;pressure;altitude;pressure_sealevel;temperature;humidity
52249;BME280;38541;48.130;8.378;2022-08-01T00:00:04;93032.25;;;17.84;55.16
52249;BME280;38541;48.130;8.378;2022-08-01T00:02:34;93026.31;;;17.87;55.32
52249;BME280;38541;48.130;8.378;2022-08-01T00:05:01;93028.69;;;17.89;55.29
52249;BME280;38541;48.130;8.378;2022-08-01T00:07:28;93029.06;;;17.96;54.94
52249;BME280;38541;48.130;8.378;2022-08-01T00:09:54;93026.09;;;17.97;54.63
52249;BME280;38541;48.130;8.378;2022-08-01T00:12:21;93022.00;;;17.91;54.50
52249;BME280;38541;48.130;8.378;2022-08-01T00:14:47;93023.44;;;17.75;54.54
52249;BME280;38541;48.130;8.378;2022-08-01T00:17:14;93016.38;;;17.56;54.75
52249;BME280;38541;48.130;8.378;2022-08-01T00:19:41;93027.00;;;17.56;55.33
52249;BME280;38541;48.130;8.378;2022-08-01T00:22:08;93021.00;;;17.50;55.55
52249;BME280;38541;48.130;8.378;2022-08-01T00:24:35;93024.88;;;17.44;56.03
52249;BME280;38541;48.130;8.378;2022-08-01T00:27:01;93026.00;;;17.52;55.79
52249;BME280;38541;48.130;8.378;2022-08-01T00:29:28;93024.56;;;17.46;55.18
52249;BME280;38541;48.130;8.378;2022-08-01T00:32:15;93021.41;;;17.44;55.22
52249;BME280;38541;48.130;8.378;2022-08-01T00:34:41;93017.38;;;17.46;55.28
52249;BME280;38541;48.130;8.378;2022-08-01T00:37:08;93031.31;;;17.52;55.38
52249;BME280;38541;48.130;8.378;2022-08-01T00:39:39;93033.53;;;17.36;55.28
52249;BME280;38541;48.130;8.378;2022-08-01T00:42:06;93029.00;;;17.22;55.43
52249;BME280;38541;48.130;8.378;2022-08-01T00:44:34;93029.72;;;17.00;55.21
52249;BME280;38541;48.130;8.378;2022-08-01T00:47:01;93031.25;;;16.87;55.84
52249;BME280;38541;48.130;8.378;2022-08-01T00:49:28;93023.25;;;16.73;56.68
52249;BME280;38541;48.130;8.378;2022-08-01T00:51:55;93020.13;;;16.71;56.87
52249;BME280;38541;48.130;8.378;2022-08-01T00:54:27;93028.06;;;16.71;57.20
52249;BME280;38541;48.130;8.378;2022-08-01T00:56:55;93030.53;;;16.67;57.10
52249;BME280;38541;48.130;8.378;2022-08-01T00:59:22;93027.31;;;16.71;57.04
52249;BME280;38541;48.130;8.378;2022-08-01T01:01:51;93030.94;;;16.61;57.69
52249;BME280;38541;48.130;8.378;2022-08-01T01:04:19;93026.69;;;16.60;57.94
52249;BME280;38541;48.130;8.378;2022-08-01T01:06:57;93030.72;;;16.71;57.11
52249;BME280;38541;48.130;8.378;2022-08-01T01:10:00;93028.28;;;16.75;56.94
52249;BME280;38541;48.130;8.378;2022-08-01T01:12:38;93023.25;;;16.73;56.78
52249;BME280;38541;48.130;8.378;2022-08-01T01:17:56;93025.97;;;16.40;57.45
52249;BME280;38541;48.130;8.378;2022-08-01T01:20:30;93026.22;;;16.24;58.12
52249;BME280;38541;48.130;8.378;2022-08-01T01:29:11;93021.16;;;16.09;59.42
52249;BME280;38541;48.130;8.378;2022-08-01T01:31:48;93029.59;;;16.11;59.34
52249;BME280;38541;48.130;8.378;2022-08-01T01:34:18;93023.94;;;15.98;59.00
52249;BME280;38541;48.130;8.378;2022-08-01T01:36:48;93029.81;;;15.95;59.33
52249;BME280;38541;48.130;8.378;2022-08-01T01:39:16;93028.25;;;15.94;59.69
52249;BME280;38541;48.130;8.378;2022-08-01T01:41:45;93040.16;;;15.97;59.63
52249;BME280;38541;48.130;8.378;2022-08-01T01:44:13;93031.91;;;15.98;59.36
52249;BME280;38541;48.130;8.378;2022-08-01T01:46:41;93034.63;;;15.93;59.41
52249;BME280;38541;48.130;8.378;2022-08-01T01:49:08;93027.19;;;15.95;59.35
52249;BME280;38541;48.130;8.378;2022-08-01T01:51:38;93030.41;;;15.92;59.77
52249;BME280;38541;48.130;8.378;2022-08-01T01:54:14;93026.19;;;15.91;60.00
52249;BME280;38541;48.130;8.378;2022-08-01T01:56:41;93024.63;;;15.90;59.91
52249;BME280;38541;48.130;8.378;2022-08-01T01:59:23;93029.97;;;15.85;60.37
52249;BME280;38541;48.130;8.378;2022-08-01T02:01:52;93033.16;;;15.82;60.03
52249;BME280;38541;48.130;8.378;2022-08-01T02:04:33;93038.03;;;15.75;61.27
52249;BME280;38541;48.130;8.378;2022-08-01T02:07:03;93027.94;;;15.77;61.01
52249;BME280;38541;48.130;8.378;2022-08-01T02:09:30;93028.44;;;15.79;60.44
52249;BME280;38541;48.130;8.378;2022-08-01T02:11:59;93023.72;;;15.76;60.68
52249;BME280;38541;48.130;8.378;2022-08-01T02:14:34;93023.81;;;15.71;60.35
52249;BME280;38541;48.130;8.378;2022-08-01T02:17:03;93027.81;;;15.68;60.82
52249;BME280;38541;48.130;8.378;2022-08-01T02:19:30;93020.59;;;15.54;60.95
52249;BME280;38541;48.130;8.378;2022-08-01T02:22:15;93030.59;;;15.58;61.00
52249;BME280;38541;48.130;8.378;2022-08-01T02:24:56;93027.09;;;15.62;61.08
52249;BME280;38541;48.130;8.378;2022-08-01T02:27:30;93028.72;;;15.58;61.22
52249;BME280;38541;48.130;8.378;2022-08-01T02:30:03;93031.38;;;15.58;61.18
52249;BME280;38541;48.130;8.378;2022-08-01T02:32:41;93035.91;;;15.58;61.02
52249;BME280;38541;48.130;8.378;2022-08-01T02:35:12;93036.97;;;15.57;61.19
52249;BME280;38541;48.130;8.378;2022-08-01T02:37:40;93030.88;;;15.56;61.31
52249;BME280;38541;48.130;8.378;2022-08-01T02:40:13;93032.97;;;15.59;61.21
52249;BME280;38541;48.130;8.378;2022-08-01T02:42:50;93029.09;;;15.51;61.24
52249;BME280;38541;48.130;8.378;2022-08-01T02:45:20;93029.81;;;15.57;61.33
52249;BME280;38541;48.130;8.378;2022-08-01T02:47:50;93031.84;;;15.65;60.44
52249;BME280;38541;48.130;8.378;2022-08-01T02:50:18;93037.41;;;15.64;60.29
52249;BME280;38541;48.130;8.378;2022-08-01T02:52:48;93035.81;;;15.63;59.82
52249;BME280;38541;48.130;8.378;2022-08-01T02:59:23;93028.56;;;15.30;60.51
52249;BME280;38541;48.130;8.378;2022-08-01T03:01:53;93030.31;;;15.40;60.50
52249;BME280;38541;48.130;8.378;2022-08-01T03:04:23;93031.69;;;15.13;60.49
52249;BME280;38541;48.130;8.378;2022-08-01T03:06:51;93030.84;;;15.18;60.30
52249;BME280;38541;48.130;8.378;2022-08-01T03:09:21;93030.97;;;15.07;60.65
52249;BME280;38541;48.130;8.378;2022-08-01T03:11:49;93026.78;;;15.01;61.26
52249;BME280;38541;48.130;8.378;2022-08-01T03:14:16;93033.31;;;15.09;61.30
52249;BME280;38541;48.130;8.378;2022-08-01T03:16:45;93028.34;;;15.02;61.42
52249;BME280;38541;48.130;8.378;2022-08-01T03:19:13;93035.78;;;15.00;61.87
52249;BME280;38541;48.130;8.378;2022-08-01T03:21:41;93031.56;;;14.99;62.07
52249;BME280;38541;48.130;8.378;2022-08-01T03:24:10;93040.53;;;15.03;61.94
52249;BME280;38541;48.130;8.378;2022-08-01T03:26:38;93035.34;;;14.93;61.69
52249;BME280;38541;48.130;8.378;2022-08-01T03:29:10;93033.28;;;14.90;62.10
52249;BME280;38541;48.130;8.378;2022-08-01T03:31:39;93037.25;;;14.87;62.16
52249;BME280;38541;48.130;8.378;2022-08-01T03:34:09;93040.75;;;14.82;62.76
52249;BME280;38541;48.130;8.378;2022-08-01T03:36:46;93041.03;;;14.81;63.02
52249;BME280;38541;48.130;8.378;2022-08-01T03:39:16;93028.03;;;14.84;63.14
52249;BME280;38541;48.130;8.378;2022-08-01T03:41:51;93029.38;;;14.82;62.69
52249;BME280;38541;48.130;8.378;2022-08-01T03:44:32;93034.88;;;14.86;62.81
52249;BME280;38541;48.130;8.378;2022-08-01T03:47:05;93033.09;;;14.81;62.92
52249;BME280;38541;48.130;8.378;2022-08-01T03:49:36;93027.81;;;14.81;63.20
52249;BME280;38541;48.130;8.378;2022-08-01T03:52:04;93029.16;;;14.78;63.26
52249;BME280;38541;48.130;8.378;2022-08-01T03:54:36;93026.50;;;14.78;63.11
52249;BME280;38541;48.130;8.378;2022-08-01T03:57:04;93024.94;;;14.77;63.06
52249;BME280;38541;48.130;8.378;2022-08-01T03:59:31;93028.72;;;14.71;63.49
52249;BME280;38541;48.130;8.378;2022-08-01T04:01:59;93022.88;;;14.69;63.84
52249;BME280;38541;48.130;8.378;2022-08-01T04:04:28;93023.16;;;14.67;63.97
52249;BME280;38541;48.130;8.378;2022-08-01T04:06:54;93031.59;;;14.69;64.11
52249;BME280;38541;48.130;8.378;2022-08-01T04:09:21;93016.53;;;14.70;64.16
52249;BME280;38541;48.130;8.378;2022-08-01T04:11:48;93023.66;;;14.69;63.97
52249;BME280;38541;48.130;8.378;2022-08-01T04:14:15;93020.25;;;14.69;63.80
52249;BME280;38541;48.130;8.378;2022-08-01T04:16:42;93020.56;;;14.62;63.98
52249;BME280;38541;48.130;8.378;2022-08-01T04:19:08;93027.69;;;14.62;64.18
52249;BME280;38541;48.130;8.378;2022-08-01T04:21:36;93018.19;;;14.61;64.20
52249;BME280;38541;48.130;8.378;2022-08-01T04:24:07;93019.78;;;14.62;64.23
52249;BME280;38541;48.130;8.378;2022-08-01T04:26:37;93022.34;;;14.67;64.04
52249;BME280;38541;48.130;8.378;2022-08-01T04:29:05;93022.34;;;14.67;64.44
52249;BME280;38541;48.130;8.378;2022-08-01T04:31:33;93031.84;;;14.68;64.79
52249;BME280;38541;48.130;8.378;2022-08-01T04:34:03;93022.34;;;14.67;64.56
52249;BME280;38541;48.130;8.378;2022-08-01T04:36:33;93027.69;;;14.62;65.13
52249;BME280;38541;48.130;8.378;2022-08-01T04:39:02;93029.22;;;14.68;65.26
52249;BME280;38541;48.130;8.378;2022-08-01T04:41:32;93026.56;;;14.68;65.00
52249;BME280;38541;48.130;8.378;2022-08-01T04:43:59;93031.84;;;14.73;65.94
52249;BME280;38541;48.130;8.378;2022-08-01T04:46:27;93036.09;;;14.69;65.48
52249;BME280;38541;48.130;8.378;2022-08-01T04:48:55;93038.22;;;14.67;65.95
52249;BME280;38541;48.130;8.378;2022-08-01T04:51:22;93032.16;;;14.66;66.32
52249;BME280;38541;48.130;8.378;2022-08-01T04:53:49;93030.00;;;14.74;66.03
52249;BME280;38541;48.130;8.378;2022-08-01T04:56:20;93029.16;;;14.78;66.06
52249;BME280;38541;48.130;8.378;2022-08-01T04:58:47;93035.97;;;14.84;65.70
52249;BME280;38541;48.130;8.378;2022-08-01T05:01:14;93039.97;;;14.82;66.00
52249;BME280;38541;48.130;8.378;2022-08-01T05:03:40;93033.59;;;14.83;65.77
52249;BME280;38541;48.130;8.378;2022-08-01T05:06:07;93035.41;;;14.88;66.41
52249;BME280;38541;48.130;8.378;2022-08-01T05:08:33;93032.78;;;14.88;65.83
52249;BME280;38541;48.130;8.378;2022-08-01T05:11:02;93038.06;;;14.88;65.67
52249;BME280;38541;48.130;8.378;2022-08-01T05:13:29;93030.06;;;14.93;65.30
52249;BME280;38541;48.130;8.378;2022-08-01T05:15:56;93031.63;;;14.94;65.55
52249;BME280;38541;48.130;8.378;2022-08-01T05:18:23;93032.91;;;14.96;65.42
52249;BME280;38541;48.130;8.378;2022-08-01T05:20:53;93034.72;;;15.01;65.68
52249;BME280;38541;48.130;8.378;2022-08-01T05:23:20;93035.47;;;15.07;65.80
52249;BME280;38541;48.130;8.378;2022-08-01T05:26:03;93032.75;;;15.12;65.15
52249;BME280;38541;48.130;8.378;2022-08-01T05:28:31;93039.06;;;15.16;65.36
52249;BME280;38541;48.130;8.378;2022-08-01T05:30:57;93036.34;;;15.21;65.77
52249;BME280;38541;48.130;8.378;2022-08-01T05:33:24;93032.28;;;15.29;66.37
52249;BME280;38541;48.130;8.378;2022-08-01T05:35:50;93030.56;;;15.38;66.91
52249;BME280;38541;48.130;8.378;2022-08-01T05:38:17;93036.88;;;15.43;66.83
52249;BME280;38541;48.130;8.378;2022-08-01T05:40:44;93030.47;;;15.49;67.27
52249;BME280;38541;48.130;8.378;2022-08-01T05:43:11;93033.53;;;15.56;67.17
52249;BME280;38541;48.130;8.378;2022-08-01T05:45:38;93032.69;;;15.61;67.33
52249;BME280;38541;48.130;8.378;2022-08-01T05:48:05;93025.16;;;15.68;67.55
52249;BME280;38541;48.130;8.378;2022-08-01T05:50:32;93027.88;;;15.82;67.45
52249;BME280;38541;48.130;8.378;2022-08-01T05:52:59;93018.72;;;15.93;67.05
52249;BME280;38541;48.130;8.378;2022-08-01T05:55:26;93026.03;;;16.02;66.99
52249;BME280;38541;48.130;8.378;2022-08-01T05:57:54;93027.22;;;16.09;66.95
52249;BME280;38541;48.130;8.378;2022-08-01T06:00:25;93029.50;;;16.16;67.14
52249;BME280;38541;48.130;8.378;2022-08-01T06:02:52;93025.13;;;16.25;67.30
52249;BME280;38541;48.130;8.378;2022-08-01T06:05:19;93028.63;;;16.40;66.89
52249;BME280;38541;48.130;8.378;2022-08-01T06:07:46;93023.72;;;16.47;67.01
52249;BME280;38541;48.130;8.378;2022-08-01T06:10:12;93020.88;;;16.58;67.41
52249;BME280;38541;48.130;8.378;2022-08-01T06:12:39;93028.94;;;16.66;67.15
52249;BME280;38541;48.130;8.378;2022-08-01T06:15:06;93027.97;;;16.76;67.14
52249;BME280;38541;48.130;8.378;2022-08-01T06:17:34;93038.91;;;16.89;66.87
52249;BME280;38541;48.130;8.378;2022-08-01T06:20:00;93032.38;;;17.00;66.29
52249;BME280;38541;48.130;8.378;2022-08-01T06:22:27;93026.84;;;17.10;66.18
52249;BME280;38541;48.130;8.378;2022-08-01T06:24:54;93021.84;;;17.23;65.96
52249;BME280;38541;48.130;8.378;2022-08-01T06:27:20;93022.41;;;17.34;65.88
52249;BME280;38541;48.130;8.378;2022-08-01T06:29:48;93024.06;;;17.44;65.16
52249;BME280;38541;48.130;8.378;2022-08-01T06:32:27;93021.09;;;17.59;65.36
52249;BME280;38541;48.130;8.378;2022-08-01T06:35:00;93029.31;;;17.72;64.81
52249;BME280;38541;48.130;8.378;2022-08-01T06:37:32;93019.28;;;17.82;64.51
52249;BME280;38541;48.130;8.378;2022-08-01T06:40:08;93017.16;;;17.93;63.93
52249;BME280;38541;48.130;8.378;2022-08-01T06:42:42;93016.66;;;18.05;63.80
52249;BME280;38541;48.130;8.378;2022-08-01T06:45:12;93020.94;;;18.15;63.05
52249;BME280;38541;48.130;8.378;2022-08-01T06:47:44;93017.13;;;18.30;62.03
52249;BME280;38541;48.130;8.378;2022-08-01T06:50:18;93016.28;;;18.44;61.25
52249;BME280;38541;48.130;8.378;2022-08-01T06:52:45;93013.66;;;18.52;60.64
52249;BME280;38541;48.130;8.378;2022-08-01T06:55:12;93011.22;;;18.65;60.54
52249;BME280;38541;48.130;8.378;2022-08-01T06:57:46;93010.97;;;18.75;60.53
52249;BME280;38541;48.130;8.378;2022-08-01T07:00:13;93018.38;;;18.87;60.21
52249;BME280;38541;48.130;8.378;2022-08-01T07:02:42;93016.91;;;19.04;59.52
52249;BME280;38541;48.130;8.378;2022-08-01T07:05:11;93015.53;;;19.15;58.49
52249;BME280;38541;48.130;8.378;2022-08-01T07:07:38;93016.03;;;19.26;59.03
52249;BME280;38541;48.130;8.378;2022-08-01T07:10:05;93015.25;;;19.34;58.17
52249;BME280;38541;48.130;8.378;2022-08-01T07:12:33;93018.25;;;19.42;57.85
52249;BME280;38541;48.130;8.378;2022-08-01T07:15:07;93013.56;;;19.47;57.89
52249;BME280;38541;48.130;8.378;2022-08-01T07:17:39;93019.22;;;19.55;57.72
52249;BME280;38541;48.130;8.378;2022-08-01T07:20:07;93020.34;;;19.62;57.65
52249;BME280;38541;48.130;8.378;2022-08-01T07:22:36;93016.91;;;19.71;57.66
52249;BME280;38541;48.130;8.378;2022-08-01T07:25:07;93018.78;;;19.79;57.56
52249;BME280;38541;48.130;8.378;2022-08-01T07:27:34;93016.09;;;19.88;58.13
52249;BME280;38541;48.130;8.378;2022-08-01T07:30:02;93021.94;;;19.99;57.22
52249;BME280;38541;48.130;8.378;2022-08-01T07:32:28;93018.03;;;20.05;57.22
52249;BME280;38541;48.130;8.378;2022-08-01T07:34:55;93019.44;;;20.11;57.08
52249;BME280;38541;48.130;8.378;2022-08-01T07:37:22;93017.41;;;20.17;57.07
52249;BME280;38541;48.130;8.378;2022-08-01T07:40:10;93012.38;;;20.24;57.43
52249;BME280;38541;48.130;8.378;2022-08-01T07:42:37;93007.16;;;20.36;56.90
52249;BME280;38541;48.130;8.378;2022-08-01T07:45:04;93005.13;;;20.42;56.42
52249;BME280;38541;48.130;8.378;2022-08-01T07:47:34;93001.19;;;20.48;56.03
52249;BME280;38541;48.130;8.378;2022-08-01T07:50:02;93000.06;;;20.58;55.39
52249;BME280;38541;48.130;8.378;2022-08-01T07:52:29;93001.78;;;20.63;54.67
52249;BME280;38541;48.130;8.378;2022-08-01T07:54:57;93002.53;;;20.72;55.02
52249;BME280;38541;48.130;8.378;2022-08-01T07:57:24;93005.66;;;20.74;54.06
52249;BME280;38541;48.130;8.378;2022-08-01T07:59:51;92991.34;;;20.79;54.11
52249;BME280;38541;48.130;8.378;2022-08-01T08:02:18;92992.47;;;20.87;54.01
52249;BME280;38541;48.130;8.378;2022-08-01T08:04:44;92998.56;;;20.96;53.40
52249;BME280;38541;48.130;8.378;2022-08-01T08:07:15;92983.25;;;21.05;53.28
52249;BME280;38541;48.130;8.378;2022-08-01T08:09:47;92989.97;;;21.12;53.33
52249;BME280;38541;48.130;8.378;2022-08-01T08:12:16;92995.78;;;21.22;53.03
52249;BME280;38541;48.130;8.378;2022-08-01T08:14:43;92992.72;;;21.33;52.66
52249;BME280;38541;48.130;8.378;2022-08-01T08:17:10;92998.00;;;21.42;52.35
52249;BME280;38541;48.130;8.378;2022-08-01T08:19:37;92991.19;;;21.53;51.95
52249;BME280;38541;48.130;8.378;2022-08-01T08:22:07;92995.84;;;21.65;50.87
52249;BME280;38541;48.130;8.378;2022-08-01T08:24:35;92985.28;;;21.69;50.67
52249;BME280;38541;48.130;8.378;2022-08-01T08:27:11;92995.34;;;21.72;50.19
52249;BME280;38541;48.130;8.378;2022-08-01T08:29:38;92987.13;;;21.77;48.88
52249;BME280;38541;48.130;8.378;2022-08-01T08:32:05;92993.56;;;21.76;49.25
52249;BME280;38541;48.130;8.378;2022-08-01T08:34:32;92988.69;;;21.78;49.50
52249;BME280;38541;48.130;8.378;2022-08-01T08:36:59;92979.78;;;21.86;49.45
52249;BME280;38541;48.130;8.378;2022-08-01T08:39:26;92988.41;;;21.92;49.45
52249;BME280;38541;48.130;8.378;2022-08-01T08:41:59;92983.34;;;21.99;49.35
52249;BME280;38541;48.130;8.378;2022-08-01T08:44:25;92976.78;;;22.09;49.25
52249;BME280;38541;48.130;8.378;2022-08-01T08:46:52;92985.06;;;22.16;49.32
52249;BME280;38541;48.130;8.378;2022-08-01T08:49:27;92987.31;;;22.27;49.56
52249;BME280;38541;48.130;8.378;2022-08-01T08:52:02;92989.47;;;22.33;48.62
52249;BME280;38541;48.130;8.378;2022-08-01T08:54:31;92988.69;;;22.33;48.68
52249;BME280;38541;48.130;8.378;2022-08-01T08:57:01;92980.78;;;22.36;48.64
52249;BME280;38541;48.130;8.378;2022-08-01T08:59:28;92985.75;;;22.47;48.23
52249;BME280;38541;48.130;8.378;2022-08-01T09:01:58;92984.66;;;22.60;48.30
52249;BME280;38541;48.130;8.378;2022-08-01T09:04:25;92980.34;;;22.68;47.18
52249;BME280;38541;48.130;8.378;2022-08-01T09:06:53;92983.34;;;22.66;47.50
52249;BME280;38541;48.130;8.378;2022-08-01T09:09:22;92980.56;;;22.75;46.76
52249;BME280;38541;48.130;8.378;2022-08-01T09:11:48;92983.69;;;22.77;46.62
52249;BME280;38541;48.130;8.378;2022-08-01T09:14:24;92983.69;;;22.77;44.77
52249;BME280;38541;48.130;8.378;2022-08-01T09:17:03;93001.56;;;22.86;45.12
52249;BME280;38541;48.130;8.378;2022-08-01T09:19:38;92991.97;;;22.85;45.05
52249;BME280;38541;48.130;8.378;2022-08-01T09:22:09;92995.41;;;22.85;45.33
52249;BME280;38541;48.130;8.378;2022-08-01T09:24:36;92996.31;;;22.89;44.94
52249;BME280;38541;48.130;8.378;2022-08-01T09:27:20;92985.72;;;22.93;47.05
52249;BME280;38541;48.130;8.378;2022-08-01T09:29:50;92990.84;;;22.98;47.35
52249;BME280;38541;48.130;8.378;2022-08-01T09:32:30;92989.72;;;22.99;46.85
52249;BME280;38541;48.130;8.378;2022-08-01T09:35:26;92984.19;;;23.04;46.51
52249;BME280;38541;48.130;8.378;2022-08-01T09:40:53;92982.63;;;23.28;45.85
52249;BME280;38541;48.130;8.378;2022-08-01T09:43:23;92995.88;;;23.25;45.69
52249;BME280;38541;48.130;8.378;2022-08-01T09:45:50;92987.28;;;23.19;45.18
52249;BME280;38541;48.130;8.378;2022-08-01T09:48:20;92992.56;;;23.15;45.00
52249;BME280;38541;48.130;8.378;2022-08-01T09:50:53;92987.63;;;23.17;45.10
52249;BME280;38541;48.130;8.378;2022-08-01T09:53:20;92982.19;;;23.26;44.33
52249;BME280;38541;48.130;8.378;2022-08-01T09:56:08;92973.47;;;23.42;43.88
52249;BME280;38541;48.130;8.378;2022-08-01T09:58:48;92983.03;;;23.55;44.22
52249;BME280;38541;48.130;8.378;2022-08-01T10:01:23;92969.97;;;23.54;44.19
52249;BME280;38541;48.130;8.378;2022-08-01T10:04:06;92980.16;;;23.48;42.91
52249;BME280;38541;48.130;8.378;2022-08-01T10:06:35;92973.34;;;23.50;43.82
52249;BME280;38541;48.130;8.378;2022-08-01T10:09:03;92979.91;;;23.53;43.70
52249;BME280;38541;48.130;8.378;2022-08-01T10:11:31;92974.88;;;23.64;43.79
52249;BME280;38541;48.130;8.378;2022-08-01T10:14:02;92977.41;;;23.73;42.34
52249;BME280;38541;48.130;8.378;2022-08-01T10:16:30;92971.19;;;23.69;41.72
52249;BME280;38541;48.130;8.378;2022-08-01T10:18:56;92961.19;;;23.82;42.33
52249;BME280;38541;48.130;8.378;2022-08-01T10:21:24;92965.22;;;23.88;42.02
52249;BME280;38541;48.130;8.378;2022-08-01T10:24:13;92973.56;;;23.99;41.77
52249;BME280;38541;48.130;8.378;2022-08-01T10:26:47;92968.63;;;24.01;40.20
52249;BME280;38541;48.130;8.378;2022-08-01T10:29:18;92969.28;;;24.10;41.00
52249;BME280;38541;48.130;8.378;2022-08-01T10:32:06;92957.56;;;24.31;40.16
52249;BME280;38541;48.130;8.378;2022-08-01T10:34:38;92949.28;;;24.36;38.87
52249;BME280;38541;48.130;8.378;2022-08-01T10:37:10;92957.50;;;24.43;39.32
52249;BME280;38541;48.130;8.378;2022-08-01T10:39:39;92946.78;;;24.59;38.33
52249;BME280;38541;48.130;8.378;2022-08-01T10:42:09;92952.63;;;24.77;36.82
52249;BME280;38541;48.130;8.378;2022-08-01T10:44:42;92950.28;;;24.92;37.37
52249;BME280;38541;48.130;8.378;2022-08-01T10:47:12;92943.78;;;24.93;38.31
52249;BME280;38541;48.130;8.378;2022-08-01T10:49:48;92947.06;;;25.02;38.73
52249;BME280;38541;48.130;8.378;2022-08-01T10:52:17;92956.56;;;25.32;38.93
52249;BME280;38541;48.130;8.378;2022-08-01T10:54:45;92954.91;;;25.43;38.76
52249;BME280;38541;48.130;8.378;2022-08-01T10:57:18;92959.16;;;25.44;36.29
52249;BME280;38541;48.130;8.378;2022-08-01T10:59:52;92947.50;;;25.04;36.61
52249;BME280;38541;48.130;8.378;2022-08-01T11:02:32;92947.22;;;25.10;35.79
52249;BME280;38541;48.130;8.378;2022-08-01T11:05:12;92942.19;;;25.24;36.29
52249;BME280;38541;48.130;8.378;2022-08-01T11:07:52;92948.22;;;25.37;36.23
52249;BME280;38541;48.130;8.378;2022-08-01T11:12:58;92955.69;;;25.60;34.85
52249;BME280;38541;48.130;8.378;2022-08-01T11:15:29;92940.59;;;25.55;35.84
52249;BME280;38541;48.130;8.378;2022-08-01T11:17:58;92939.34;;;25.69;35.71
52249;BME280;38541;48.130;8.378;2022-08-01T11:20:28;92943.09;;;25.48;35.84
52249;BME280;38541;48.130;8.378;2022-08-01T11:28:26;92928.94;;;25.87;34.38
52249;BME280;38541;48.130;8.378;2022-08-01T11:38:42;92927.28;;;26.64;33.41
52249;BME280;38541;48.130;8.378;2022-08-01T11:41:16;92922.88;;;26.76;33.38
52249;BME280;38541;48.130;8.378;2022-08-01T11:52:18;92921.91;;;27.11;30.97
52249;BME280;38541;48.130;8.378;2022-08-01T11:54:51;92917.66;;;27.10;31.15
52249;BME280;38541;48.130;8.378;2022-08-01T11:57:23;92921.78;;;27.04;31.47
52249;BME280;38541;48.130;8.378;2022-08-01T12:00:10;92911.16;;;27.15;30.38
52249;BME280;38541;48.130;8.378;2022-08-01T12:02:44;92915.78;;;27.14;30.13
52249;BME280;38541;48.130;8.378;2022-08-01T12:05:13;92919.06;;;26.81;30.60
52249;BME280;38541;48.130;8.378;2022-08-01T12:07:42;92917.47;;;26.99;30.10
52249;BME280;38541;48.130;8.378;2022-08-01T12:10:10;92912.44;;;27.25;30.21
52249;BME280;38541;48.130;8.378;2022-08-01T12:12:45;92915.00;;;27.41;30.13
52249;BME280;38541;48.130;8.378;2022-08-01T12:15:12;92903.09;;;27.72;30.70
52249;BME280;38541;48.130;8.378;2022-08-01T12:17:47;92914.25;;;27.71;31.45
52249;BME280;38541;48.130;8.378;2022-08-01T12:20:27;92912.66;;;27.39;31.14
52249;BME280;38541;48.130;8.378;2022-08-01T12:22:56;92913.19;;;27.48;30.93
52249;BME280;38541;48.130;8.378;2022-08-01T12:25:24;92902.44;;;27.52;29.80
52249;BME280;38541;48.130;8.378;2022-08-01T12:27:50;92908.38;;;27.96;29.38
52249;BME280;38541;48.130;8.378;2022-08-01T12:30:22;92912.94;;;28.22;28.50
52249;BME280;38541;48.130;8.378;2022-08-01T12:32:51;92908.91;;;28.09;29.13
52249;BME280;38541;48.130;8.378;2022-08-01T12:35:22;92920.63;;;28.16;29.24
52249;BME280;38541;48.130;8.378;2022-08-01T12:37:54;92911.38;;;28.21;28.17
52249;BME280;38541;48.130;8.378;2022-08-01T12:40:26;92918.13;;;28.38;28.37
52249;BME280;38541;48.130;8.378;2022-08-01T12:42:55;92923.22;;;28.47;28.21
52249;BME280;38541;48.130;8.378;2022-08-01T12:45:28;92914.16;;;28.28;28.08
52249;BME280;38541;48.130;8.378;2022-08-01T12:47:57;92911.16;;;28.03;28.57
52249;BME280;38541;48.130;8.378;2022-08-01T12:50:28;92902.50;;;28.21;28.71
52249;BME280;38541;48.130;8.378;2022-08-01T12:52:56;92908.22;;;28.53;29.60
52249;BME280;38541;48.130;8.378;2022-08-01T12:55:26;92914.53;;;28.27;29.93
52249;BME280;38541;48.130;8.378;2022-08-01T12:58:11;92894.44;;;28.69;29.59
52249;BME280;38541;48.130;8.378;2022-08-01T13:00:43;92902.78;;;28.50;29.41
52249;BME280;38541;48.130;8.378;2022-08-01T13:03:15;92917.31;;;28.79;28.76
52249;BME280;38541;48.130;8.378;2022-08-01T13:08:15;92910.78;;;29.29;27.72
52249;BME280;38541;48.130;8.378;2022-08-01T13:10:43;92911.25;;;29.42;27.98
52249;BME280;38541;48.130;8.378;2022-08-01T13:13:10;92911.53;;;29.93;27.20
52249;BME280;38541;48.130;8.378;2022-08-01T13:16:04;92901.16;;;29.39;27.91
52249;BME280;38541;48.130;8.378;2022-08-01T13:18:32;92903.94;;;28.94;29.15
52249;BME280;38541;48.130;8.378;2022-08-01T13:21:18;92908.34;;;28.68;30.59
52249;BME280;38541;48.130;8.378;2022-08-01T13:24:11;92903.69;;;28.65;31.81
52249;BME280;38541;48.130;8.378;2022-08-01T13:29:09;92904.09;;;28.25;30.74
52249;BME280;38541;48.130;8.378;2022-08-01T13:31:37;92902.66;;;28.35;31.10
52249;BME280;38541;48.130;8.378;2022-08-01T13:34:04;92895.88;;;30.74;28.61
52249;BME280;38541;48.130;8.378;2022-08-01T13:36:30;92902.09;;;32.44;26.10
52249;BME280;38541;48.130;8.378;2022-08-01T13:38:58;92905.69;;;33.36;24.79
52249;BME280;38541;48.130;8.378;2022-08-01T13:41:44;92887.53;;;33.64;23.60
52249;BME280;38541;48.130;8.378;2022-08-01T13:44:12;92892.69;;;32.56;25.26
52249;BME280;38541;48.130;8.378;2022-08-01T13:46:41;92904.97;;;32.79;24.79
52249;BME280;38541;48.130;8.378;2022-08-01T13:49:15;92900.63;;;32.25;26.39
52249;BME280;38541;48.130;8.378;2022-08-01T13:51:42;92896.88;;;31.90;26.94
52249;BME280;38541;48.130;8.378;2022-08-01T13:54:09;92905.50;;;31.55;27.22
52249;BME280;38541;48.130;8.378;2022-08-01T13:56:35;92905.16;;;30.63;28.28
52249;BME280;38541;48.130;8.378;2022-08-01T13:59:02;92896.91;;;30.15;29.03
52249;BME280;38541;48.130;8.378;2022-08-01T14:01:29;92892.09;;;29.76;29.11